createdAt,value
2023-05-02T00:02:01.541Z,12.32
2023-05-02T00:07:04.924Z,12.00
2023-05-02T00:12:07.722Z,11.80
2023-05-02T00:17:17.778Z,11.40
2023-05-02T00:22:31.916Z,11.75
2023-05-02T00:27:34.759Z,11.13
2023-05-02T00:32:37.436Z,12.23
2023-05-02T00:37:40.258Z,13.53
2023-05-02T00:42:44.128Z,13.57
2023-05-02T00:47:51.144Z,14.45
2023-05-02T00:53:03.035Z,12.95
2023-05-02T00:58:09.086Z,11.05
2023-05-02T01:03:23.356Z,11.82
2023-05-02T01:09:07.552Z,11.48
2023-05-02T01:14:12.036Z,11.43
2023-05-02T01:19:26.557Z,11.57
2023-05-02T01:24:33.249Z,11.30
2023-05-02T01:29:37.944Z,11.43
2023-05-02T01:34:41.805Z,12.07
2023-05-02T01:39:44.873Z,12.20
2023-05-02T01:44:52.251Z,12.38
2023-05-02T01:49:55.780Z,15.15
2023-05-02T01:54:59.975Z,12.85
2023-05-02T02:00:05.362Z,13.13
2023-05-02T02:05:20.657Z,11.33
2023-05-02T02:10:27.718Z,12.50
2023-05-02T02:15:35.130Z,13.02
2023-05-02T02:20:38.319Z,11.68
2023-05-02T02:25:45.774Z,11.18
2023-05-02T02:30:48.767Z,11.00
2023-05-02T02:35:59.294Z,10.80
2023-05-02T02:41:09.072Z,9.63
2023-05-02T02:46:38.711Z,8.48
2023-05-02T02:51:51.748Z,6.43
2023-05-02T02:57:03.138Z,6.43
2023-05-02T03:02:10.614Z,7.10
2023-05-02T03:07:14.236Z,7.85
2023-05-02T03:12:20.467Z,6.82
2023-05-02T03:17:28.589Z,6.25
2023-05-02T03:22:31.661Z,6.65
2023-05-02T03:27:36.423Z,7.57
2023-05-02T03:32:41.737Z,8.10
2023-05-02T03:42:50.241Z,7.90
2023-05-02T03:53:08.684Z,10.77
2023-05-02T03:58:20.187Z,10.67
2023-05-02T04:03:25.158Z,9.18
2023-05-02T04:08:29.065Z,9.50
2023-05-02T04:13:33.498Z,8.32
2023-05-02T04:18:37.118Z,8.68
2023-05-02T04:23:46.515Z,7.20
2023-05-02T04:28:50.283Z,7.20
2023-05-02T04:33:53.883Z,6.30
2023-05-02T04:39:00.700Z,6.25
2023-05-02T04:44:07.695Z,6.32
2023-05-02T04:49:12.441Z,6.65
2023-05-02T04:54:16.149Z,6.75
2023-05-02T04:59:20.501Z,6.10
2023-05-02T05:04:26.054Z,7.95
2023-05-02T05:09:29.670Z,6.90
2023-05-02T05:14:32.618Z,6.27
2023-05-02T05:19:37.339Z,7.25
2023-05-02T05:24:44.010Z,7.18
2023-05-02T05:29:47.383Z,7.70
2023-05-02T05:34:54.466Z,6.20
2023-05-02T05:40:01.725Z,6.93
2023-05-02T05:45:06.460Z,6.35
2023-05-02T05:50:09.871Z,6.40
2023-05-02T05:55:13.809Z,7.45
2023-05-02T06:00:17.335Z,6.25
2023-05-02T06:05:23.701Z,6.57
2023-05-02T06:10:27.727Z,6.63
2023-05-02T06:15:35.494Z,6.72
2023-05-02T06:20:40.962Z,7.28
2023-05-02T06:25:43.677Z,7.93
2023-05-02T06:30:46.592Z,8.07
2023-05-02T06:35:53.550Z,8.07
2023-05-02T06:40:56.620Z,6.85
2023-05-02T06:45:59.641Z,12.15
2023-05-02T06:51:04.490Z,7.90
2023-05-02T06:56:10.272Z,6.63
2023-05-02T07:01:13.323Z,6.97
2023-05-02T07:06:16.261Z,7.05
2023-05-02T07:11:19.572Z,7.78
2023-05-02T07:16:23.762Z,8.20
2023-05-02T07:21:26.967Z,9.40
2023-05-02T07:26:30.690Z,8.43
2023-05-02T07:31:33.727Z,6.88
2023-05-02T07:36:36.855Z,7.55
2023-05-02T07:46:42.442Z,12.15
2023-05-02T07:51:45.968Z,7.00
2023-05-02T07:56:49.403Z,5.97
2023-05-02T08:01:52.236Z,6.80
2023-05-02T08:17:02.304Z,6.22
2023-05-02T08:27:08.513Z,9.93
2023-05-02T08:32:11.205Z,9.40
2023-05-02T08:42:16.795Z,4.38
2023-05-02T08:52:22.484Z,4.57
2023-05-02T08:57:25.822Z,3.00
2023-05-02T09:03:06.168Z,3.30
2023-05-02T09:08:12.230Z,3.05
2023-05-02T09:13:36.465Z,2.45
2023-05-02T09:18:47.230Z,2.20
2023-05-02T09:23:52.685Z,2.60
2023-05-02T09:28:57.303Z,2.70
2023-05-02T09:34:14.354Z,6.32
2023-05-02T09:39:21.477Z,3.38
2023-05-02T09:44:26.715Z,3.30
2023-05-02T09:49:43.283Z,3.70
2023-05-02T09:54:54.370Z,3.70
2023-05-02T10:00:01.586Z,3.78
2023-05-02T10:05:20.642Z,3.70
2023-05-02T10:10:23.964Z,3.55
2023-05-02T10:15:28.647Z,3.80
2023-05-02T10:20:38.963Z,4.00
2023-05-02T10:25:42.699Z,5.90
2023-05-02T10:30:46.262Z,5.13
2023-05-02T10:35:49.066Z,5.15
2023-05-02T10:41:14.283Z,6.25
2023-05-02T10:46:40.855Z,5.40
2023-05-02T10:51:43.792Z,4.75
2023-05-02T10:57:03.225Z,4.95
2023-05-02T11:02:28.599Z,4.65
2023-05-02T11:07:36.319Z,4.22
2023-05-02T11:12:49.370Z,3.70
2023-05-02T11:18:04.382Z,4.70
2023-05-02T11:23:22.185Z,5.00
2023-05-02T11:28:37.501Z,6.68
2023-05-02T11:33:40.026Z,5.18
2023-05-02T11:38:44.505Z,3.50
2023-05-02T11:43:49.014Z,3.80
2023-05-02T11:48:51.656Z,3.35
2023-05-02T11:59:03.747Z,4.00
2023-05-02T12:04:10.582Z,4.03
2023-05-02T12:09:19.780Z,3.50
2023-05-02T12:14:28.209Z,2.92
2023-05-02T12:19:31.651Z,2.90
2023-05-02T12:29:44.137Z,3.63
2023-05-02T12:34:47.039Z,3.45
2023-05-02T12:39:49.832Z,3.83
2023-05-02T12:44:53.562Z,3.50
2023-05-02T12:49:57.777Z,3.40
2023-05-02T12:55:16.913Z,2.42
2023-05-02T13:00:20.179Z,3.53
2023-05-02T13:05:23.535Z,2.47
2023-05-02T13:10:27.132Z,3.35
2023-05-02T13:15:29.857Z,2.90
2023-05-02T13:20:34.224Z,3.70
2023-05-02T13:25:37.726Z,3.58
2023-05-02T13:30:41.367Z,2.88
2023-05-02T13:35:44.106Z,2.58
2023-05-02T13:40:46.866Z,2.40
2023-05-02T13:45:49.461Z,3.20
2023-05-02T13:50:54.374Z,3.33
2023-05-02T13:55:59.145Z,5.65
2023-05-02T14:01:01.856Z,6.70
2023-05-02T14:06:05.172Z,6.75
2023-05-02T14:11:07.877Z,7.70
2023-05-02T14:16:10.997Z,4.95
2023-05-02T14:26:16.747Z,3.05
2023-05-02T14:31:20.121Z,3.20
2023-05-02T14:36:22.766Z,4.53
2023-05-02T14:41:27.087Z,3.53
2023-05-02T14:46:30.625Z,14.80
2023-05-02T14:51:39.800Z,26.40
2023-05-02T14:56:43.654Z,35.55
2023-05-02T15:01:46.520Z,6.15
2023-05-02T15:06:49.260Z,5.75
2023-05-02T15:11:52.030Z,6.75
2023-05-02T15:16:57.419Z,7.20
2023-05-02T15:22:00.866Z,5.25
2023-05-02T15:27:04.064Z,4.82
2023-05-02T15:32:06.768Z,4.80
2023-05-02T15:37:09.807Z,4.88
2023-05-02T15:42:12.808Z,3.95
2023-05-02T15:47:16.078Z,3.53
2023-05-02T15:52:19.864Z,7.88
2023-05-02T15:57:26.380Z,5.78
2023-05-02T16:02:29.123Z,9.02
2023-05-02T16:07:32.116Z,13.45
2023-05-02T16:12:34.720Z,8.88
2023-05-02T16:17:40.995Z,7.40
2023-05-02T16:22:49.117Z,7.15
2023-05-02T16:27:52.110Z,6.53
2023-05-02T16:32:55.326Z,6.00
2023-05-02T16:43:01.703Z,10.63
2023-05-02T16:48:06.154Z,8.88
2023-05-02T16:53:13.379Z,8.77
2023-05-02T16:58:16.653Z,8.15
2023-05-02T17:03:19.953Z,6.88
2023-05-02T17:08:24.435Z,5.25
2023-05-02T17:13:27.631Z,4.70
2023-05-02T17:18:37.670Z,4.63
2023-05-02T17:23:40.608Z,4.38
2023-05-02T17:28:45.327Z,4.03
2023-05-02T17:33:48.130Z,7.82
2023-05-02T17:39:07.290Z,7.20
2023-05-02T17:44:10.053Z,6.90
2023-05-02T17:49:13.615Z,8.85
2023-05-02T17:54:16.616Z,9.30
2023-05-02T17:59:23.910Z,5.50
2023-05-02T18:04:29.582Z,7.43
2023-05-02T18:09:33.404Z,8.73
2023-05-02T18:14:36.305Z,9.93
2023-05-02T18:19:40.490Z,8.63
2023-05-02T18:24:43.696Z,5.90
2023-05-02T18:29:46.589Z,4.93
2023-05-02T18:34:49.431Z,5.03
2023-05-02T18:39:52.175Z,5.95
2023-05-02T18:44:55.556Z,7.70
2023-05-02T18:55:08.881Z,13.18
2023-05-02T19:00:12.862Z,16.90
2023-05-02T19:05:18.368Z,12.43
2023-05-02T19:10:21.321Z,16.05
2023-05-02T19:15:26.980Z,17.75
2023-05-02T19:20:30.550Z,12.05
2023-05-02T19:30:47.983Z,7.60
2023-05-02T19:35:52.077Z,6.15
2023-05-02T19:40:56.081Z,6.50
2023-05-02T19:45:59.261Z,6.78
2023-05-02T19:56:09.958Z,5.78
2023-05-02T20:01:16.059Z,8.13
2023-05-02T20:06:29.932Z,6.40
2023-05-02T20:11:33.342Z,6.68
2023-05-02T20:16:36.458Z,6.10
2023-05-02T20:21:40.685Z,6.55
2023-05-02T20:26:43.644Z,7.78
2023-05-02T20:31:47.277Z,10.32
2023-05-02T20:36:54.916Z,9.77
2023-05-02T20:41:58.542Z,10.47
2023-05-02T20:47:01.637Z,5.40
2023-05-02T20:52:06.603Z,4.25
2023-05-02T20:57:12.973Z,5.97
2023-05-02T21:02:15.884Z,5.78
2023-05-02T21:07:21.179Z,7.25
2023-05-02T21:12:23.942Z,7.75
2023-05-02T21:17:26.782Z,6.88
2023-05-02T21:22:29.528Z,9.40
2023-05-02T21:27:32.970Z,7.47
2023-05-02T21:32:35.675Z,5.85
2023-05-02T21:37:38.427Z,8.37
2023-05-02T21:42:41.276Z,6.70
2023-05-02T21:47:44.335Z,8.23
2023-05-02T21:52:47.492Z,6.80
2023-05-02T21:57:51.464Z,5.53
2023-05-02T22:02:54.332Z,5.80
2023-05-02T22:07:57.472Z,5.70
2023-05-02T22:13:00.317Z,6.88
2023-05-02T22:18:07.266Z,6.23
2023-05-02T22:23:11.784Z,7.32
2023-05-02T22:28:14.595Z,7.13
2023-05-02T22:33:17.359Z,5.93
2023-05-02T22:38:27.601Z,4.97
2023-05-02T22:43:33.084Z,5.50
2023-05-02T22:48:35.880Z,5.00
2023-05-02T22:53:39.150Z,5.10
2023-05-02T22:58:43.402Z,5.60
2023-05-02T23:03:47.449Z,5.47
2023-05-02T23:08:51.527Z,5.20
2023-05-02T23:13:54.568Z,5.60
2023-05-02T23:18:58.340Z,5.67
2023-05-02T23:24:05.647Z,5.35
2023-05-02T23:29:12.627Z,5.88
2023-05-02T23:34:15.558Z,6.40
2023-05-02T23:39:18.533Z,6.57
2023-05-02T23:44:23.387Z,7.20
2023-05-02T23:49:27.326Z,6.88
2023-05-02T23:54:35.232Z,6.95
2023-05-02T23:59:38.151Z,7.25
